Time;durP1;ratioP1;P1;durP2;ratioP2;P2;SDS_P1;SDS_P2;PMS_P1;PMS_P2;Temp;Humidity;BMP_temperature;BMP_pressure;BME280_temperature;BME280_humidity;BME280_pressure;Samples;Min_cycle;Max_cycle;Signal;HPM_P1;HPM_P2
2021/12/05 00:22:20;;;;;;;6.65;2.88;;;;;;;2.89;100.00;99582.91;5093282;28;20028;-78
2021/12/05 00:24:49;;;;;;;6.07;2.42;;;;;;;2.84;100.00;99587.53;5053225;28;20395;-78
2021/12/05 00:27:23;;;;;;;8.48;2.13;;;;;;;2.79;100.00;99582.84;5084956;28;20508;-77
2021/12/05 01:16:42;;;;;;;5.55;1.40;;;;;;;2.58;100.00;99608.47;5089797;28;20032;-77
2021/12/05 01:19:08;;;;;;;8.93;1.30;;;;;;;2.58;100.00;99608.47;5071785;28;20028;-78
2021/12/05 01:21:36;;;;;;;6.38;1.23;;;;;;;2.62;100.00;99610.44;5068461;28;20031;-78
2021/12/05 01:26:40;;;;;;;5.10;1.40;;;;;;;2.67;100.00;99587.69;5075343;28;20133;-77
2021/12/05 01:37:11;;;;;;;5.20;1.50;;;;;;;2.74;100.00;99582.00;5068643;28;20031;-77
2021/12/05 01:45:31;;;;;;;5.82;0.98;;;;;;;2.80;100.00;99586.41;5068028;28;20050;-78
2021/12/05 01:53:54;;;;;;;5.20;1.02;;;;;;;2.81;100.00;99605.34;5071187;28;20395;-78
2021/12/05 02:01:45;;;;;;;4.25;1.27;;;;;;;2.86;100.00;99610.84;5069304;28;20036;-77
2021/12/05 02:15:09;;;;;;;5.90;0.90;;;;;;;2.84;100.00;99557.38;5081743;28;20472;-77
2021/12/05 02:15:37;;;;;;;5.68;1.17;;;;;;;2.82;100.00;99571.34;5070846;28;20066;-78
2021/12/05 02:41:47;;;;;;;2.67;0.70;;;;;;;2.87;100.00;99590.59;5069193;28;20040;-77
2021/12/05 02:46:47;;;;;;;5.32;0.90;;;;;;;2.88;100.00;99577.69;5076579;28;20035;-78
2021/12/05 02:49:15;;;;;;;3.17;0.80;;;;;;;2.84;100.00;99576.56;5070968;28;20107;-77
2021/12/05 02:51:41;;;;;;;6.63;0.93;;;;;;;2.84;100.00;99576.56;5049838;28;20036;-77
2021/12/05 02:54:13;;;;;;;4.72;0.75;;;;;;;2.83;100.00;99574.91;5044255;28;20457;-77
2021/12/05 02:56:43;;;;;;;4.47;0.83;;;;;;;2.85;100.00;99575.47;5071697;28;20111;-78
2021/12/05 03:01:56;;;;;;;5.20;1.00;;;;;;;2.82;100.00;99576.84;5069139;28;20040;-78
2021/12/05 03:04:24;;;;;;;3.67;0.80;;;;;;;2.80;100.00;99579.00;5064089;28;20024;-78
2021/12/05 03:06:52;;;;;;;4.50;1.08;;;;;;;2.80;100.00;99578.19;5086365;28;20101;-78
2021/12/05 03:09:18;;;;;;;3.97;0.80;;;;;;;2.78;100.00;99583.94;5053934;28;20075;-78
2021/12/05 03:11:44;;;;;;;3.10;0.95;;;;;;;2.73;100.00;99578.44;5061950;28;20547;-78
2021/12/05 03:14:10;;;;;;;6.03;0.90;;;;;;;2.73;100.00;99577.59;5071466;28;20492;-78
2021/12/05 03:16:36;;;;;;;4.45;0.80;;;;;;;2.67;100.00;99580.31;5087572;28;20110;-78
2021/12/05 03:19:03;;;;;;;5.85;0.98;;;;;;;2.67;100.00;99583.06;5058288;28;20028;-77
2021/12/05 03:21:29;;;;;;;5.35;1.00;;;;;;;2.63;100.00;99578.38;5070568;28;20081;-78
2021/12/05 03:23:57;;;;;;;2.95;0.80;;;;;;;2.59;100.00;99571.75;5035021;28;20040;-77
2021/12/05 03:26:26;;;;;;;3.03;1.00;;;;;;;2.53;100.00;99573.63;5074643;28;20671;-77
2021/12/05 03:28:55;;;;;;;5.57;1.02;;;;;;;2.50;100.00;99578.81;5086291;28;20039;-77
2021/12/05 03:31:20;;;;;;;6.10;0.90;;;;;;;2.41;100.00;99579.31;5088335;28;20044;-77
2021/12/05 03:33:46;;;;;;;2.53;0.93;;;;;;;2.39;100.00;99577.91;5085596;28;20082;-77
2021/12/05 03:36:11;;;;;;;3.00;0.80;;;;;;;2.38;100.00;99579.84;5081706;28;20034;-78
2021/12/05 03:38:38;;;;;;;4.60;1.02;;;;;;;2.33;100.00;99589.94;5083874;28;20448;-77
2021/12/05 03:41:04;;;;;;;5.22;0.90;;;;;;;2.29;100.00;99588.81;5068767;28;20113;-77
2021/12/05 03:43:29;;;;;;;3.97;0.80;;;;;;;2.22;100.00;99591.75;5065420;28;20043;-77
2021/12/05 03:45:55;;;;;;;2.75;0.50;;;;;;;2.14;100.00;99590.31;5097437;28;20035;-77
2021/12/05 03:48:22;;;;;;;4.57;0.82;;;;;;;2.11;100.00;99595.50;5054389;28;20024;-78
2021/12/05 03:50:48;;;;;;;4.80;0.98;;;;;;;2.07;100.00;99597.94;5069956;28;20040;-78
2021/12/05 03:53:13;;;;;;;4.63;1.00;;;;;;;2.03;100.00;99590.50;5034847;28;20108;-77
2021/12/05 03:55:40;;;;;;;5.35;1.15;;;;;;;1.99;100.00;99593.75;5091127;28;20039;-77
2021/12/05 03:58:06;;;;;;;3.08;0.80;;;;;;;1.95;100.00;99595.38;5094552;28;20169;-77
2021/12/05 04:00:35;;;;;;;3.33;0.85;;;;;;;1.92;100.00;99600.53;5062869;28;20023;-77
2021/12/05 04:03:03;;;;;;;3.22;0.70;;;;;;;1.88;100.00;99604.88;5086330;28;20086;-77
2021/12/05 04:05:31;;;;;;;4.10;0.77;;;;;;;1.84;100.00;99599.13;5087860;28;20054;-77
2021/12/05 04:07:56;;;;;;;5.95;1.00;;;;;;;1.78;100.00;99600.97;5072712;28;20031;-77
2021/12/05 04:10:22;;;;;;;6.10;1.20;;;;;;;1.76;100.00;99610.53;5064479;28;20049;-77
2021/12/05 04:12:47;;;;;;;3.08;0.80;;;;;;;1.68;100.00;99616.47;5059870;28;20024;-77
2021/12/05 04:15:13;;;;;;;4.30;0.93;;;;;;;1.64;100.00;99612.56;5061079;28;20131;-77
2021/12/05 04:17:39;;;;;;;2.63;1.00;;;;;;;1.63;100.00;99614.47;5061424;28;20091;-77
2021/12/05 04:20:05;;;;;;;4.72;1.60;;;;;;;1.59;100.00;99616.09;5087744;28;20526;-77
2021/12/05 04:22:31;;;;;;;4.07;1.02;;;;;;;1.56;100.00;99613.84;5059113;28;20032;-78
2021/12/05 04:24:57;;;;;;;4.10;0.80;;;;;;;1.55;100.00;99613.03;5086585;28;20536;-77
2021/12/05 04:27:23;;;;;;;3.63;0.80;;;;;;;1.49;100.00;99626.91;5069368;28;20091;-77
2021/12/05 04:29:48;;;;;;;4.75;0.90;;;;;;;1.49;100.00;99619.53;5096297;28;20063;-77
2021/12/05 04:32:14;;;;;;;5.57;0.80;;;;;;;1.47;100.00;99629.91;5061614;28;20036;-77
2021/12/05 04:34:39;;;;;;;5.00;1.00;;;;;;;1.45;100.00;99629.34;5068397;28;20477;-77
2021/12/05 04:37:05;;;;;;;3.97;0.90;;;;;;;1.45;100.00;99639.44;5071774;28;20656;-77
2021/12/05 04:39:31;;;;;;;4.95;0.90;;;;;;;1.43;100.00;99639.72;5093940;28;20034;-77
2021/12/05 04:41:57;;;;;;;3.05;0.88;;;;;;;1.41;100.00;99643.78;5067289;28;20035;-77
2021/12/05 04:44:22;;;;;;;4.90;1.25;;;;;;;1.40;100.00;99648.44;5068988;28;20040;-77
2021/12/05 04:46:48;;;;;;;3.92;0.80;;;;;;;1.39;100.00;99644.03;5071715;28;20032;-77
2021/12/05 04:49:13;;;;;;;4.00;0.82;;;;;;;1.35;100.00;99637.41;5070344;28;20040;-77
2021/12/05 04:51:40;;;;;;;7.55;0.80;;;;;;;1.33;100.00;99636.84;5102595;28;20092;-77
2021/12/05 04:54:07;;;;;;;3.08;0.98;;;;;;;1.31;100.00;99641.75;5088045;28;20396;-77
2021/12/05 04:56:35;;;;;;;5.05;0.77;;;;;;;1.33;100.00;99639.56;5093779;28;20085;-77
2021/12/05 04:59:01;;;;;;;4.65;1.10;;;;;;;1.31;100.00;99644.50;5094099;28;20043;-77
2021/12/05 05:01:26;;;;;;;3.25;0.90;;;;;;;1.29;100.00;99638.44;5041552;28;20397;-77
2021/12/05 05:03:52;;;;;;;3.28;1.30;;;;;;;1.29;100.00;99641.19;5072391;28;20032;-78
2021/12/05 05:06:19;;;;;;;3.58;0.90;;;;;;;1.24;100.00;99638.38;5056038;28;20028;-77
2021/12/05 05:08:47;;;;;;;2.47;0.70;;;;;;;1.24;100.00;99630.16;5061842;28;20025;-77
2021/12/05 05:11:14;;;;;;;3.75;0.82;;;;;;;1.23;100.00;99642.19;5057130;28;20032;-77
2021/12/05 05:13:39;;;;;;;4.47;0.77;;;;;;;1.18;100.00;99651.16;5084583;28;20053;-77
2021/12/05 05:16:06;;;;;;;3.60;0.85;;;;;;;1.21;100.00;99649.81;5062753;28;20048;-77
2021/12/05 05:18:48;;;;;;;3.65;0.80;;;;;;;1.18;100.00;99653.06;5074555;28;20196;-77
2021/12/05 05:50:27;;;;;;;5.25;1.00;;;;;;;1.04;100.00;99664.38;5048322;28;20414;-78
2021/12/05 05:52:52;;;;;;;5.15;0.88;;;;;;;1.01;100.00;99670.34;5090359;28;20027;-78
2021/12/05 05:55:18;;;;;;;3.78;0.98;;;;;;;0.98;100.00;99667.28;5086834;28;20024;-78
2021/12/05 05:57:55;;;;;;;2.85;0.90;;;;;;;0.97;100.00;99673.81;5097027;28;20052;-78
2021/12/05 06:00:31;;;;;;;2.00;0.85;;;;;;;0.98;100.00;99672.75;5061460;28;20039;-78
2021/12/05 06:05:41;;;;;;;4.40;0.80;;;;;;;0.88;100.00;99684.34;5081725;28;20034;-77
2021/12/05 06:08:07;;;;;;;3.00;0.80;;;;;;;0.90;100.00;99682.22;5063618;28;20028;-77
2021/12/05 06:10:32;;;;;;;3.53;1.00;;;;;;;0.84;100.00;99689.50;5062428;28;20032;-78
2021/12/05 06:12:58;;;;;;;3.58;0.68;;;;;;;0.82;100.00;99669.78;5066127;28;20085;-77
2021/12/05 06:15:25;;;;;;;4.03;0.90;;;;;;;0.79;100.00;99674.94;5088647;28;20028;-77
2021/12/05 06:17:52;;;;;;;6.30;1.15;;;;;;;0.77;100.00;99674.34;5061987;28;20122;-77
2021/12/05 06:20:19;;;;;;;8.80;1.40;;;;;;;0.75;100.00;99687.44;5067311;28;20059;-77
2021/12/05 06:22:45;;;;;;;2.90;0.70;;;;;;;0.76;100.00;99686.38;5084643;28;20040;-77
2021/12/05 06:25:14;;;;;;;6.32;1.00;;;;;;;0.73;100.00;99682.22;5063599;28;20526;-77
2021/12/05 06:27:41;;;;;;;5.65;1.02;;;;;;;0.72;100.00;99679.72;5065389;28;20088;-77
2021/12/05 06:30:15;;;;;;;8.68;1.15;;;;;;;0.69;100.00;99691.16;5076644;28;20055;-77
2021/12/05 06:36:48;;;;;;;4.55;1.00;;;;;;;0.70;100.00;99681.88;5093117;28;20028;-77
2021/12/05 06:41:12;;;;;;;6.55;0.90;;;;;;;0.69;100.00;99697.47;5089286;28;20099;-77
2021/12/05 06:46:10;;;;;;;9.25;1.38;;;;;;;0.68;100.00;99697.72;5082807;28;20092;-77
2021/12/05 06:48:35;;;;;;;4.13;1.13;;;;;;;0.62;100.00;99702.28;5088219;28;20019;-77
2021/12/05 06:51:02;;;;;;;3.55;1.05;;;;;;;0.63;100.00;99712.94;5079901;28;20424;-77
2021/12/05 06:53:28;;;;;;;4.63;1.20;;;;;;;0.62;100.00;99703.09;5065849;28;20028;-77
2021/12/05 06:55:53;;;;;;;6.88;1.90;;;;;;;0.62;100.00;99714.03;5068643;28;20039;-77
2021/12/05 06:58:19;;;;;;;4.32;1.20;;;;;;;0.62;100.00;99714.03;5068363;28;20036;-77
2021/12/05 07:00:44;;;;;;;4.30;1.38;;;;;;;0.59;100.00;99716.44;5064105;28;20024;-77
2021/12/05 07:03:10;;;;;;;9.73;1.20;;;;;;;0.59;100.00;99719.16;5060489;28;20043;-77
2021/12/05 07:08:15;;;;;;;5.43;1.70;;;;;;;0.58;100.00;99714.75;5098797;28;20469;-77
2021/12/05 07:10:49;;;;;;;7.22;1.70;;;;;;;0.58;100.00;99728.44;5051908;28;20023;-77
2021/12/05 07:15:49;;;;;;;6.20;1.65;;;;;;;0.55;100.00;99735.22;5095684;28;20028;-77
2021/12/05 07:23:52;;;;;;;4.68;1.80;;;;;;;0.59;100.00;99735.56;5055110;28;20040;-77
2021/12/05 07:26:42;;;;;;;8.93;1.80;;;;;;;0.59;100.00;99741.84;5095418;28;20036;-77
2021/12/05 07:40:28;;;;;;;11.05;2.15;;;;;;;0.64;100.00;99739.22;5072667;28;20468;-77
2021/12/05 07:43:05;;;;;;;5.35;1.30;;;;;;;0.68;100.00;99749.66;5088007;28;20485;-77
2021/12/05 07:45:40;;;;;;;6.13;1.77;;;;;;;0.64;100.00;99744.69;5048188;28;20031;-77
2021/12/05 07:48:22;;;;;;;5.78;1.48;;;;;;;0.72;100.00;99742.59;5055425;28;20107;-77
2021/12/05 07:53:30;;;;;;;6.03;1.48;;;;;;;0.71;100.00;99746.41;5064700;28;20020;-77
2021/12/05 07:56:03;;;;;;;9.85;1.60;;;;;;;0.73;100.00;99742.38;5077979;28;20032;-77
2021/12/05 07:58:50;;;;;;;3.80;1.67;;;;;;;0.73;100.00;99747.00;5070355;28;20028;-78
2021/12/05 08:15:15;;;;;;;6.35;1.30;;;;;;;0.72;100.00;99746.16;5082033;28;20032;-78
2021/12/05 08:17:49;;;;;;;8.57;1.95;;;;;;;0.72;100.00;99748.88;5066053;28;20040;-77
2021/12/05 08:20:14;;;;;;;8.40;1.55;;;;;;;0.74;100.00;99756.84;5045332;28;20020;-77
2021/12/05 08:22:40;;;;;;;9.10;2.30;;;;;;;0.74;100.00;99748.66;5034761;28;20040;-78
2021/12/05 08:25:11;;;;;;;3.78;1.45;;;;;;;0.77;100.00;99750.88;5055993;28;20028;-78
2021/12/05 08:27:39;;;;;;;4.45;1.40;;;;;;;0.80;100.00;99747.66;5061129;28;20044;-77
2021/12/05 08:30:10;;;;;;;7.57;2.13;;;;;;;0.84;100.00;99748.81;5048561;28;20088;-77
2021/12/05 09:27:12;;;;;;;19.63;3.03;;;;;;;2.52;100.00;99802.22;5068399;28;20409;-78
2021/12/05 09:51:34;;;;;;;23.52;3.90;;;;;;;3.38;100.00;99823.28;5078138;28;20122;-77
2021/12/05 10:02:36;;;;;;;22.75;4.50;;;;;;;3.78;100.00;99822.72;5096434;28;20032;-77
2021/12/05 10:08:04;;;;;;;24.42;3.60;;;;;;;3.98;100.00;99832.16;5106137;28;20078;-76
2021/12/05 10:10:37;;;;;;;21.17;3.28;;;;;;;4.09;100.00;99822.06;5076735;28;20027;-77
2021/12/05 10:13:57;;;;;;;24.77;3.15;;;;;;;4.17;100.00;99822.38;5056248;28;20094;-77
2021/12/05 10:37:53;;;;;;;15.57;3.15;;;;;;;4.77;100.00;99838.50;5066531;28;20738;-77
2021/12/05 10:40:33;;;;;;;17.05;3.70;;;;;;;4.87;100.00;99846.78;5040776;28;20494;-78
2021/12/05 10:42:58;;;;;;;17.70;2.90;;;;;;;4.97;100.00;99854.22;5051074;28;20027;-78
2021/12/05 10:45:46;;;;;;;23.90;2.97;;;;;;;5.02;100.00;99866.06;5042578;28;20032;-77
2021/12/05 10:48:26;;;;;;;22.27;3.58;;;;;;;5.08;100.00;99853.13;5077793;28;20036;-77
2021/12/05 10:51:04;;;;;;;16.15;2.65;;;;;;;5.12;100.00;99854.22;5047866;28;20032;-77
2021/12/05 10:53:31;;;;;;;15.57;2.58;;;;;;;5.19;100.00;99870.50;5060488;28;20039;-77
2021/12/05 10:56:08;;;;;;;21.65;3.17;;;;;;;5.27;100.00;99861.69;5062514;28;20032;-77
2021/12/05 10:58:43;;;;;;;12.98;2.90;;;;;;;5.34;100.00;99856.72;5087182;28;20074;-77
2021/12/05 11:01:29;;;;;;;12.75;3.00;;;;;;;5.38;100.00;99852.34;5072066;28;20024;-77
2021/12/05 11:04:06;;;;;;;14.93;3.08;;;;;;;5.42;100.00;99847.91;5047200;28;20037;-77
2021/12/05 11:06:35;;;;;;;16.13;3.05;;;;;;;5.46;100.00;99849.03;5060173;28;20030;-77
2021/12/05 11:09:05;;;;;;;17.88;2.92;;;;;;;5.48;100.00;99854.25;5074896;28;20373;-77
2021/12/05 11:11:31;;;;;;;16.58;3.30;;;;;;;5.52;100.00;99845.16;5052522;28;20684;-77
2021/12/05 11:13:58;;;;;;;17.02;2.90;;;;;;;5.57;100.00;99858.09;5049748;28;20027;-77
2021/12/05 11:16:38;;;;;;;18.63;3.00;;;;;;;5.68;100.00;99900.22;5017147;28;20072;-78
2021/12/05 11:19:15;;;;;;;9.10;2.05;;;;;;;5.70;100.00;99895.28;5046928;28;20036;-77
2021/12/05 11:21:47;;;;;;;8.43;1.50;;;;;;;5.64;100.00;99879.84;5077243;28;20508;-77
2021/12/05 11:24:26;;;;;;;10.23;1.70;;;;;;;5.58;100.00;99863.31;5072560;28;20032;-77
2021/12/05 11:27:15;;;;;;;9.68;1.90;;;;;;;5.54;100.00;99870.50;5072521;28;20028;-77
2021/12/05 11:30:13;;;;;;;5.75;1.45;;;;;;;5.43;100.00;99866.06;5069267;28;20033;-77
2021/12/05 11:32:54;;;;;;;4.63;1.38;;;;;;;5.43;100.00;99865.25;5072917;28;20037;-77
2021/12/05 11:35:27;;;;;;;7.03;1.63;;;;;;;5.47;100.00;99877.38;5071506;28;20053;-77
2021/12/05 11:38:18;;;;;;;7.47;1.90;;;;;;;5.40;100.00;99907.94;5095294;28;20503;-77
2021/12/05 11:41:02;;;;;;;7.72;2.10;;;;;;;5.28;100.00;99924.72;5060552;28;20435;-77
2021/12/05 11:43:34;;;;;;;6.43;2.00;;;;;;;5.22;100.00;99908.50;5080051;28;20035;-77
2021/12/05 11:46:25;;;;;;;6.43;1.80;;;;;;;5.17;100.00;99916.72;5065897;28;20050;-77
2021/12/05 11:48:57;;;;;;;8.88;2.10;;;;;;;5.10;100.00;99889.50;5068566;28;20024;-77
2021/12/05 11:51:29;;;;;;;10.15;2.50;;;;;;;5.02;100.00;99896.34;5081520;28;20436;-78
2021/12/05 11:54:09;;;;;;;8.90;2.33;;;;;;;5.02;100.00;99892.78;5078301;28;20062;-77
2021/12/05 11:56:35;;;;;;;13.10;3.60;;;;;;;4.97;100.00;99895.50;5062216;28;20050;-77
2021/12/05 11:59:23;;;;;;;9.15;3.22;;;;;;;4.94;100.00;99894.13;5096909;28;20046;-77
2021/12/05 12:02:08;;;;;;;10.07;3.80;;;;;;;4.91;100.00;99909.25;5050841;28;20039;-77
2021/12/05 12:04:45;;;;;;;10.88;3.25;;;;;;;4.90;100.00;99917.75;5032304;28;20025;-77
2021/12/05 12:07:16;;;;;;;14.75;4.22;;;;;;;4.84;100.00;99919.66;5075286;28;20089;-77
2021/12/05 12:09:42;;;;;;;8.63;2.45;;;;;;;4.86;100.00;99911.16;5085778;28;20035;-77
2021/12/05 12:12:07;;;;;;;15.88;3.53;;;;;;;4.77;100.00;99904.53;5060100;28;20031;-77
2021/12/05 12:14:33;;;;;;;10.27;2.60;;;;;;;4.74;100.00;99910.59;5039461;28;20031;-77
2021/12/05 12:16:59;;;;;;;17.38;2.83;;;;;;;4.66;100.00;99888.00;5051559;28;20493;-77
2021/12/05 12:19:28;;;;;;;10.70;2.05;;;;;;;4.67;100.00;99895.13;5061697;28;20566;-77
2021/12/05 12:21:57;;;;;;;9.77;2.30;;;;;;;4.64;100.00;99900.34;5045198;28;20027;-77
2021/12/05 12:24:24;;;;;;;16.15;2.80;;;;;;;4.66;100.00;99893.50;5070467;28;20032;-77
2021/12/05 12:26:49;;;;;;;16.38;2.95;;;;;;;4.67;100.00;99886.06;5066487;28;20499;-77
2021/12/05 12:29:15;;;;;;;12.27;3.83;;;;;;;4.68;100.00;99890.47;5066453;28;20040;-77
2021/12/05 12:31:42;;;;;;;11.15;3.28;;;;;;;4.72;100.00;99894.34;5061929;28;20040;-77
2021/12/05 12:34:10;;;;;;;10.43;3.80;;;;;;;4.76;100.00;99889.94;5051340;28;20456;-77
2021/12/05 12:36:45;;;;;;;16.27;6.13;;;;;;;4.83;100.00;99908.94;5076718;28;20039;-77
2021/12/05 12:39:16;;;;;;;10.48;2.85;;;;;;;4.86;100.00;99922.16;5092760;28;20428;-77
2021/12/05 12:41:42;;;;;;;14.02;2.67;;;;;;;4.87;100.00;99921.06;5074341;28;20036;-78
2021/12/05 12:44:08;;;;;;;14.88;2.90;;;;;;;4.86;100.00;99933.16;5074314;28;20089;-77
2021/12/05 12:46:41;;;;;;;11.23;3.10;;;;;;;4.88;100.00;99922.72;5062635;28;20031;-77
2021/12/05 12:49:16;;;;;;;19.27;4.88;;;;;;;4.83;100.00;99914.47;5092177;28;20030;-78
2021/12/05 12:52:03;;;;;;;18.90;3.70;;;;;;;4.82;100.00;99902.63;5089810;28;20081;-78
2021/12/05 12:54:37;;;;;;;11.13;2.80;;;;;;;4.80;100.00;99907.56;5078827;28;20423;-77
2021/12/05 12:57:20;;;;;;;14.77;3.50;;;;;;;4.77;100.00;99904.53;5081523;28;20032;-76
2021/12/05 12:59:48;;;;;;;9.52;2.35;;;;;;;4.78;100.00;99914.44;5044658;28;20044;-78
2021/12/05 13:10:24;;;;;;;11.60;4.18;;;;;;;4.83;100.00;99917.22;5072187;28;20181;-77
2021/12/05 13:12:52;;;;;;;13.60;3.92;;;;;;;4.85;100.00;99915.84;5049260;28;20016;-77
2021/12/05 13:15:33;;;;;;;10.98;4.00;;;;;;;4.87;100.00;99923.81;5073363;28;20032;-77
2021/12/05 13:18:08;;;;;;;11.15;3.17;;;;;;;4.90;100.00;99923.25;5050334;28;20448;-77
2021/12/05 13:20:43;;;;;;;14.55;3.92;;;;;;;4.93;100.00;99920.81;5072422;28;20032;-77
2021/12/05 13:23:16;;;;;;;10.80;3.50;;;;;;;4.95;100.00;99926.03;5069471;28;20029;-78
2021/12/05 13:26:20;;;;;;;14.10;4.53;;;;;;;5.00;100.00;99922.47;5063829;28;20091;-77
2021/12/05 13:28:48;;;;;;;15.70;4.40;;;;;;;5.05;100.00;99928.00;5108003;28;20055;-77
2021/12/05 13:31:49;;;;;;;17.30;4.45;;;;;;;5.09;100.00;99931.84;5093594;28;20485;-77
2021/12/05 13:34:21;;;;;;;15.00;4.30;;;;;;;5.11;100.00;99922.22;5091590;28;20040;-77
2021/12/05 13:37:05;;;;;;;15.13;4.97;;;;;;;5.17;100.00;99933.25;5060051;28;20082;-77
2021/12/05 13:39:36;;;;;;;20.00;5.60;;;;;;;5.20;100.00;99939.03;5078825;28;20042;-77
2021/12/05 13:42:09;;;;;;;22.45;5.30;;;;;;;5.26;100.00;99937.13;5063475;28;20032;-77
2021/12/05 13:45:00;;;;;;;20.63;5.93;;;;;;;5.30;100.00;99928.03;5063662;28;20103;-77
2021/12/05 13:47:44;;;;;;;23.55;6.93;;;;;;;5.30;100.00;99935.47;5098372;28;20037;-77
2021/12/05 13:50:19;;;;;;;23.45;6.70;;;;;;;5.30;100.00;99938.22;5070369;28;20032;-77
2021/12/05 13:53:05;;;;;;;17.98;5.13;;;;;;;5.29;100.00;99937.41;5068258;28;20040;-77
2021/12/05 13:56:05;;;;;;;13.30;4.32;;;;;;;5.28;100.00;99937.69;5081407;28;20043;-78
2021/12/05 14:01:02;;;;;;;16.55;3.17;;;;;;;5.27;100.00;99941.53;5097983;28;20051;-77
2021/12/05 14:03:45;;;;;;;12.20;3.00;;;;;;;5.25;100.00;99946.47;5067743;28;20047;-77
2021/12/05 14:06:36;;;;;;;10.75;2.30;;;;;;;5.22;100.00;99944.28;5061159;28;20079;-77
2021/12/05 14:09:21;;;;;;;12.48;2.05;;;;;;;5.21;100.00;99948.09;5044804;28;20166;-77
2021/12/05 14:12:18;;;;;;;13.50;2.58;;;;;;;5.22;100.00;99944.28;5055887;28;20511;-77
2021/12/05 14:14:50;;;;;;;12.57;2.78;;;;;;;5.21;100.00;99956.38;5051484;28;20028;-77
2021/12/05 14:17:19;;;;;;;10.18;2.67;;;;;;;5.15;100.00;99967.41;5091301;28;20032;-77
2021/12/05 14:19:58;;;;;;;16.25;3.28;;;;;;;5.16;100.00;99959.97;5089848;28;20084;-75
2021/12/05 14:22:25;;;;;;;13.10;3.75;;;;;;;5.23;100.00;99959.69;5105008;28;20663;-75
2021/12/05 14:24:53;;;;;;;14.75;3.63;;;;;;;5.30;100.00;99960.25;5067528;28;20138;-74
2021/12/05 14:27:27;;;;;;;12.10;3.30;;;;;;;5.34;100.00;99956.66;5098620;28;20035;-74
2021/12/05 14:29:52;;;;;;;14.15;2.90;;;;;;;5.43;100.00;99961.66;5070149;28;20036;-74
2021/12/05 14:32:22;;;;;;;8.73;2.70;;;;;;;5.46;100.00;99963.84;5078117;28;20043;-74
2021/12/05 14:34:51;;;;;;;17.75;4.35;;;;;;;5.45;100.00;99979.56;5084672;28;20031;-73
2021/12/05 14:37:19;;;;;;;12.15;3.05;;;;;;;5.49;100.00;99990.84;5066753;28;20107;-75
2021/12/05 14:39:46;;;;;;;9.77;2.85;;;;;;;5.47;100.00;99991.13;5070295;28;20035;-74
2021/12/05 14:42:20;;;;;;;13.77;2.70;;;;;;;5.48;100.00;100001.03;5055879;28;20393;-74
2021/12/05 14:44:47;;;;;;;9.75;2.60;;;;;;;5.49;100.00;100008.22;5083130;28;20492;-75
2021/12/05 14:47:17;;;;;;;12.93;3.08;;;;;;;5.49;100.00;100007.38;5081457;28;20028;-75
2021/12/05 14:49:47;;;;;;;17.13;3.50;;;;;;;5.50;100.00;99995.28;5086463;28;20110;-75
2021/12/05 14:52:21;;;;;;;16.80;3.58;;;;;;;5.44;100.00;99990.84;5069382;28;20057;-75
2021/12/05 14:54:46;;;;;;;12.95;3.55;;;;;;;5.43;100.00;99997.44;5067884;28;20028;-75
2021/12/05 14:57:17;;;;;;;11.43;3.08;;;;;;;5.41;100.00;100000.50;5086083;28;20081;-75
2021/12/05 14:59:44;;;;;;;8.40;2.38;;;;;;;5.39;100.00;99997.16;5071967;28;20028;-75
2021/12/05 15:02:11;;;;;;;15.50;3.40;;;;;;;5.37;100.00;100000.19;5057957;28;20139;-75
2021/12/05 15:04:39;;;;;;;18.02;3.28;;;;;;;5.33;100.00;100003.78;5062138;28;20020;-75
2021/12/05 15:07:05;;;;;;;10.15;3.53;;;;;;;5.32;100.00;100004.84;5095819;28;20063;-74
2021/12/05 15:09:36;;;;;;;16.55;3.85;;;;;;;5.29;100.00;100005.41;5056966;28;20035;-75
2021/12/05 15:12:09;;;;;;;19.70;4.18;;;;;;;5.27;100.00;100013.13;5082921;28;20090;-74
2021/12/05 15:14:35;;;;;;;;;;;;;;;5.25;100.00;100007.88;5094576;28;20032;-74
2021/12/05 15:17:03;;;;;;;19.17;5.65;;;;;;;5.25;100.00;100007.88;5092928;28;19915;-74
2021/12/05 15:19:29;;;;;;;20.17;4.40;;;;;;;5.25;100.00;100007.88;5061303;28;20028;-74
2021/12/05 15:21:54;;;;;;;15.63;4.15;;;;;;;5.25;100.00;100012.56;5075809;28;20024;-75
2021/12/05 15:24:22;;;;;;;17.92;4.97;;;;;;;5.25;100.00;100035.41;5096730;28;20042;-74
2021/12/05 15:26:48;;;;;;;17.75;4.50;;;;;;;5.24;100.00;100038.44;5073899;28;20020;-74
2021/12/05 15:29:13;;;;;;;18.13;5.82;;;;;;;5.26;100.00;100041.75;5069341;28;20048;-74
2021/12/05 15:31:40;;;;;;;17.95;4.43;;;;;;;5.24;100.00;100035.69;5056503;28;20037;-74
2021/12/05 15:34:35;;;;;;;20.38;4.07;;;;;;;5.22;100.00;100035.13;5051564;28;20170;-74
2021/12/05 15:37:09;;;;;;;13.45;4.13;;;;;;;5.21;100.00;100056.34;5076627;28;20089;-75
2021/12/05 15:39:35;;;;;;;18.20;4.80;;;;;;;5.20;100.00;100043.66;5071501;28;20055;-75
2021/12/05 15:42:00;;;;;;;15.18;3.70;;;;;;;5.22;100.00;100062.66;5088389;28;20047;-74
2021/12/05 15:44:36;;;;;;;13.15;3.85;;;;;;;5.19;100.00;100074.22;5079857;28;20442;-74
2021/12/05 15:47:07;;;;;;;18.75;4.63;;;;;;;5.19;100.00;100074.22;5083314;28;20492;-73
2021/12/05 15:49:47;;;;;;;14.10;3.90;;;;;;;5.17;100.00;100090.16;5083265;28;20044;-73
2021/12/05 15:52:12;;;;;;;14.98;4.93;;;;;;;5.12;100.00;100086.28;5066884;28;20062;-74
2021/12/05 15:54:38;;;;;;;9.13;4.05;;;;;;;5.15;100.00;100102.28;5095211;28;20024;-73
2021/12/05 15:57:11;;;;;;;17.17;4.88;;;;;;;5.07;100.00;100097.28;5067566;28;20092;-74
2021/12/05 15:59:40;;;;;;;;;;;;;;;5.02;100.00;100100.00;5086726;28;20057;-74
2021/12/05 16:02:10;;;;;;;10.98;4.07;;;;;;;4.98;100.00;100104.38;5073144;28;19919;-74
2021/12/05 16:04:36;;;;;;;12.75;4.38;;;;;;;4.97;100.00;100112.91;5078129;28;20032;-74
2021/12/05 16:07:01;;;;;;;17.58;4.13;;;;;;;4.93;100.00;100105.19;5066495;28;20036;-73
2021/12/05 16:09:27;;;;;;;19.23;4.55;;;;;;;4.94;100.00;100114.28;5049884;28;20484;-74
2021/12/05 16:12:10;;;;;;;15.65;4.78;;;;;;;4.92;100.00;100117.28;5076818;28;20032;-74
2021/12/05 16:14:36;;;;;;;;;;;;;;;4.93;100.00;100110.69;5095122;28;20423;-74
2021/12/05 16:17:14;;;;;;;11.50;5.05;;;;;;;4.92;100.00;100121.97;5098184;28;19912;-73
2021/12/05 16:20:10;;;;;;;18.38;5.72;;;;;;;4.88;100.00;100127.19;5103385;28;20495;-74
2021/12/05 16:22:57;;;;;;;15.50;5.85;;;;;;;4.87;100.00;100124.69;5104144;28;20038;-74
2021/12/05 16:25:23;;;;;;;20.95;6.70;;;;;;;4.84;100.00;100123.28;5096998;28;20042;-73
2021/12/05 16:27:53;;;;;;;19.80;6.78;;;;;;;4.84;100.00;100127.97;5069257;28;20045;-74
2021/12/05 16:30:22;;;;;;;15.50;6.65;;;;;;;4.82;100.00;100135.63;5068370;28;20454;-73
2021/12/05 16:32:48;;;;;;;15.63;6.93;;;;;;;4.81;100.00;100136.75;5056839;28;20036;-73
2021/12/05 16:35:32;;;;;;;26.80;9.10;;;;;;;4.80;100.00;100135.09;5045416;28;20033;-73
2021/12/05 16:37:57;;;;;;;20.00;7.85;;;;;;;4.80;100.00;100138.69;5063873;28;20033;-74
2021/12/05 16:40:23;;;;;;;24.30;9.32;;;;;;;4.81;100.00;100137.56;5027776;28;20120;-74
2021/12/05 16:42:51;;;;;;;17.55;8.05;;;;;;;4.78;100.00;100149.09;5074065;28;20060;-74
2021/12/05 16:45:16;;;;;;;23.58;9.15;;;;;;;4.78;100.00;100148.28;5048004;28;20121;-74
2021/12/05 16:47:43;;;;;;;22.50;7.50;;;;;;;4.78;100.00;100145.53;5073500;28;20064;-73
2021/12/05 16:50:13;;;;;;;16.67;5.30;;;;;;;4.77;100.00;100163.16;5057668;28;20043;-75
2021/12/05 16:52:44;;;;;;;16.15;5.07;;;;;;;4.75;100.00;100162.56;5058060;28;20028;-74
2021/12/05 16:55:24;;;;;;;13.40;4.20;;;;;;;4.74;100.00;100163.69;5047484;28;20024;-74
2021/12/05 16:58:10;;;;;;;17.40;5.00;;;;;;;4.74;100.00;100164.50;5069116;28;20460;-74
2021/12/05 17:00:38;;;;;;;15.38;4.25;;;;;;;4.74;100.00;100172.75;5075240;28;20112;-75
2021/12/05 17:03:05;;;;;;;15.63;3.90;;;;;;;4.74;100.00;100161.75;5049077;28;20608;-74
2021/12/05 17:05:45;;;;;;;13.30;3.58;;;;;;;4.74;100.00;100174.69;5048396;28;20037;-75
2021/12/05 17:08:17;;;;;;;12.75;3.55;;;;;;;4.73;100.00;100175.75;5030911;28;20041;-76
2021/12/05 17:10:43;;;;;;;14.00;2.92;;;;;;;4.70;100.00;100169.69;5025418;28;20075;-74
2021/12/05 17:13:12;;;;;;;13.35;3.20;;;;;;;4.67;100.00;100172.97;5069149;28;20025;-75
2021/12/05 17:15:49;;;;;;;9.73;2.78;;;;;;;4.66;100.00;100185.06;5034435;28;20060;-74
2021/12/05 17:18:47;;;;;;;17.58;3.28;;;;;;;4.64;100.00;100181.75;5059447;28;20025;-74
2021/12/05 17:21:17;;;;;;;11.82;3.60;;;;;;;4.63;100.00;100182.03;5077382;28;20544;-74